Terminal Aerodrome Forecast
Issued by NWS

Home | Current Version | Previous Version | Text Only | Print | Product List | Glossary On
Versions: 1 2 3 4 5 6 7 8 9 10 11 12 13 14
933
FTUS43 KSGF 211138
TAFJLN
TAF
KJLN 211138Z 2112/2212 00000KT 2SM BR SCT003
      TEMPO 2112/2114 3/4SM BR BKN003
     FM211400 08005KT P6SM SCT090 SCT250=

USA.gov is the U.S. government's official web portal to all federal, state and local government web resources and services.